sensor_id;sensor_type;location;lat;lon;timestamp;P1;durP1;ratioP1;P2;durP2;ratioP2
12703;SDS011;6416;52.182;7.650;2024-01-25T00:01:05;20.00;;;5.43;;
12703;SDS011;6416;52.182;7.650;2024-01-25T00:03:30;29.07;;;5.87;;
12703;SDS011;6416;52.182;7.650;2024-01-25T00:05:56;25.27;;;6.17;;
12703;SDS011;6416;52.182;7.650;2024-01-25T00:08:21;17.30;;;4.67;;
12703;SDS011;6416;52.182;7.650;2024-01-25T00:10:46;25.53;;;5.37;;
12703;SDS011;6416;52.182;7.650;2024-01-25T00:13:12;25.63;;;5.93;;
12703;SDS011;6416;52.182;7.650;2024-01-25T00:15:37;20.73;;;5.73;;
12703;SDS011;6416;52.182;7.650;2024-01-25T00:18:03;27.17;;;6.10;;
12703;SDS011;6416;52.182;7.650;2024-01-25T00:20:28;29.90;;;6.60;;
12703;SDS011;6416;52.182;7.650;2024-01-25T00:22:54;22.17;;;5.87;;
12703;SDS011;6416;52.182;7.650;2024-01-25T00:25:19;20.67;;;5.13;;
12703;SDS011;6416;52.182;7.650;2024-01-25T00:27:45;19.40;;;5.10;;
12703;SDS011;6416;52.182;7.650;2024-01-25T00:30:10;27.20;;;5.63;;
12703;SDS011;6416;52.182;7.650;2024-01-25T00:32:36;25.30;;;5.37;;
12703;SDS011;6416;52.182;7.650;2024-01-25T00:35:03;22.90;;;5.67;;
12703;SDS011;6416;52.182;7.650;2024-01-25T00:37:29;22.23;;;5.70;;
12703;SDS011;6416;52.182;7.650;2024-01-25T00:39:54;28.23;;;6.03;;
12703;SDS011;6416;52.182;7.650;2024-01-25T00:42:21;20.33;;;4.50;;
12703;SDS011;6416;52.182;7.650;2024-01-25T00:44:47;21.73;;;4.77;;
12703;SDS011;6416;52.182;7.650;2024-01-25T00:47:13;21.90;;;5.87;;
12703;SDS011;6416;52.182;7.650;2024-01-25T00:49:39;27.87;;;5.50;;
12703;SDS011;6416;52.182;7.650;2024-01-25T00:52:05;21.93;;;6.40;;
12703;SDS011;6416;52.182;7.650;2024-01-25T00:54:30;22.17;;;5.57;;
12703;SDS011;6416;52.182;7.650;2024-01-25T00:56:56;21.10;;;5.77;;
12703;SDS011;6416;52.182;7.650;2024-01-25T00:59:22;21.73;;;5.23;;
12703;SDS011;6416;52.182;7.650;2024-01-25T01:01:48;23.90;;;5.00;;
12703;SDS011;6416;52.182;7.650;2024-01-25T01:04:16;25.47;;;5.57;;
12703;SDS011;6416;52.182;7.650;2024-01-25T01:06:41;25.90;;;5.77;;
12703;SDS011;6416;52.182;7.650;2024-01-25T01:09:07;23.93;;;5.90;;
12703;SDS011;6416;52.182;7.650;2024-01-25T01:11:33;20.30;;;5.13;;
12703;SDS011;6416;52.182;7.650;2024-01-25T01:13:58;20.17;;;5.33;;
12703;SDS011;6416;52.182;7.650;2024-01-25T01:16:24;28.93;;;6.60;;
12703;SDS011;6416;52.182;7.650;2024-01-25T01:18:49;25.40;;;6.00;;
12703;SDS011;6416;52.182;7.650;2024-01-25T01:21:15;22.03;;;5.20;;
12703;SDS011;6416;52.182;7.650;2024-01-25T01:23:40;18.20;;;4.80;;
12703;SDS011;6416;52.182;7.650;2024-01-25T01:26:06;21.23;;;6.17;;
12703;SDS011;6416;52.182;7.650;2024-01-25T01:28:32;23.67;;;5.30;;
12703;SDS011;6416;52.182;7.650;2024-01-25T01:30:58;25.47;;;5.87;;
12703;SDS011;6416;52.182;7.650;2024-01-25T01:33:23;24.60;;;5.37;;
12703;SDS011;6416;52.182;7.650;2024-01-25T01:35:49;26.23;;;5.30;;
12703;SDS011;6416;52.182;7.650;2024-01-25T01:38:14;22.47;;;5.17;;
12703;SDS011;6416;52.182;7.650;2024-01-25T01:40:40;26.10;;;5.37;;
12703;SDS011;6416;52.182;7.650;2024-01-25T01:43:05;22.57;;;5.20;;
12703;SDS011;6416;52.182;7.650;2024-01-25T01:45:31;20.93;;;4.70;;
12703;SDS011;6416;52.182;7.650;2024-01-25T01:47:56;32.20;;;6.37;;
12703;SDS011;6416;52.182;7.650;2024-01-25T01:50:23;22.77;;;5.73;;
12703;SDS011;6416;52.182;7.650;2024-01-25T01:52:49;21.07;;;5.40;;
12703;SDS011;6416;52.182;7.650;2024-01-25T01:55:16;21.00;;;4.70;;
12703;SDS011;6416;52.182;7.650;2024-01-25T01:57:42;22.63;;;5.37;;
12703;SDS011;6416;52.182;7.650;2024-01-25T02:00:08;21.13;;;5.23;;
12703;SDS011;6416;52.182;7.650;2024-01-25T02:02:34;19.73;;;5.33;;
12703;SDS011;6416;52.182;7.650;2024-01-25T02:05:00;16.93;;;4.50;;
12703;SDS011;6416;52.182;7.650;2024-01-25T02:07:26;23.07;;;5.43;;
12703;SDS011;6416;52.182;7.650;2024-01-25T02:09:52;21.37;;;5.30;;
12703;SDS011;6416;52.182;7.650;2024-01-25T02:12:17;25.63;;;5.70;;
12703;SDS011;6416;52.182;7.650;2024-01-25T02:14:43;21.90;;;4.83;;
12703;SDS011;6416;52.182;7.650;2024-01-25T02:17:08;18.13;;;5.30;;
12703;SDS011;6416;52.182;7.650;2024-01-25T02:19:34;22.73;;;5.03;;
12703;SDS011;6416;52.182;7.650;2024-01-25T02:22:00;15.10;;;4.13;;
12703;SDS011;6416;52.182;7.650;2024-01-25T02:24:28;21.67;;;4.73;;
12703;SDS011;6416;52.182;7.650;2024-01-25T02:26:54;18.17;;;4.20;;
12703;SDS011;6416;52.182;7.650;2024-01-25T02:29:19;20.03;;;5.40;;
12703;SDS011;6416;52.182;7.650;2024-01-25T02:31:45;23.23;;;5.03;;
12703;SDS011;6416;52.182;7.650;2024-01-25T02:34:13;25.53;;;4.80;;
12703;SDS011;6416;52.182;7.650;2024-01-25T02:36:39;23.40;;;5.43;;
12703;SDS011;6416;52.182;7.650;2024-01-25T02:39:04;25.33;;;5.40;;
12703;SDS011;6416;52.182;7.650;2024-01-25T02:41:30;18.33;;;4.60;;
12703;SDS011;6416;52.182;7.650;2024-01-25T02:43:57;20.77;;;4.87;;
12703;SDS011;6416;52.182;7.650;2024-01-25T02:46:23;18.93;;;4.97;;
12703;SDS011;6416;52.182;7.650;2024-01-25T02:48:48;19.10;;;4.93;;
12703;SDS011;6416;52.182;7.650;2024-01-25T02:51:14;24.83;;;5.10;;
12703;SDS011;6416;52.182;7.650;2024-01-25T02:53:39;22.40;;;4.80;;
12703;SDS011;6416;52.182;7.650;2024-01-25T02:56:05;17.53;;;5.00;;
12703;SDS011;6416;52.182;7.650;2024-01-25T02:58:31;19.80;;;4.50;;
12703;SDS011;6416;52.182;7.650;2024-01-25T03:00:56;24.57;;;5.27;;
12703;SDS011;6416;52.182;7.650;2024-01-25T03:03:22;17.23;;;4.80;;
12703;SDS011;6416;52.182;7.650;2024-01-25T03:05:47;23.93;;;4.47;;
12703;SDS011;6416;52.182;7.650;2024-01-25T03:08:13;19.30;;;4.97;;
12703;SDS011;6416;52.182;7.650;2024-01-25T03:10:38;21.73;;;4.63;;
12703;SDS011;6416;52.182;7.650;2024-01-25T03:13:04;16.47;;;4.37;;
12703;SDS011;6416;52.182;7.650;2024-01-25T03:15:29;19.10;;;4.50;;
12703;SDS011;6416;52.182;7.650;2024-01-25T03:17:54;21.73;;;5.17;;
12703;SDS011;6416;52.182;7.650;2024-01-25T03:20:20;22.17;;;4.67;;
12703;SDS011;6416;52.182;7.650;2024-01-25T03:22:45;21.27;;;4.50;;
12703;SDS011;6416;52.182;7.650;2024-01-25T03:25:11;20.87;;;4.60;;
12703;SDS011;6416;52.182;7.650;2024-01-25T03:27:36;16.77;;;4.60;;
12703;SDS011;6416;52.182;7.650;2024-01-25T03:30:02;27.47;;;5.77;;
12703;SDS011;6416;52.182;7.650;2024-01-25T03:32:27;17.63;;;4.57;;
12703;SDS011;6416;52.182;7.650;2024-01-25T03:34:53;22.50;;;5.23;;
12703;SDS011;6416;52.182;7.650;2024-01-25T03:37:18;26.50;;;5.60;;
12703;SDS011;6416;52.182;7.650;2024-01-25T03:39:44;22.70;;;5.33;;
12703;SDS011;6416;52.182;7.650;2024-01-25T03:42:09;24.20;;;4.90;;
12703;SDS011;6416;52.182;7.650;2024-01-25T03:44:35;22.10;;;4.40;;
12703;SDS011;6416;52.182;7.650;2024-01-25T03:47:00;22.63;;;5.50;;
12703;SDS011;6416;52.182;7.650;2024-01-25T03:49:26;25.33;;;5.53;;
12703;SDS011;6416;52.182;7.650;2024-01-25T03:51:52;26.23;;;4.37;;
12703;SDS011;6416;52.182;7.650;2024-01-25T03:54:17;22.60;;;5.00;;
12703;SDS011;6416;52.182;7.650;2024-01-25T03:56:43;22.90;;;4.63;;
12703;SDS011;6416;52.182;7.650;2024-01-25T03:59:08;26.33;;;5.17;;
12703;SDS011;6416;52.182;7.650;2024-01-25T04:01:34;24.03;;;5.27;;
12703;SDS011;6416;52.182;7.650;2024-01-25T04:04:05;21.53;;;5.03;;
12703;SDS011;6416;52.182;7.650;2024-01-25T04:06:30;22.23;;;4.77;;
12703;SDS011;6416;52.182;7.650;2024-01-25T04:08:56;24.97;;;5.07;;
12703;SDS011;6416;52.182;7.650;2024-01-25T04:11:21;19.10;;;4.63;;
12703;SDS011;6416;52.182;7.650;2024-01-25T04:13:47;21.33;;;5.43;;
12703;SDS011;6416;52.182;7.650;2024-01-25T04:16:13;19.67;;;4.63;;
12703;SDS011;6416;52.182;7.650;2024-01-25T04:18:39;19.73;;;5.57;;
12703;SDS011;6416;52.182;7.650;2024-01-25T04:21:04;17.70;;;4.77;;
12703;SDS011;6416;52.182;7.650;2024-01-25T04:23:30;21.30;;;4.50;;
12703;SDS011;6416;52.182;7.650;2024-01-25T04:25:55;24.13;;;5.33;;
12703;SDS011;6416;52.182;7.650;2024-01-25T04:28:21;20.00;;;5.10;;
12703;SDS011;6416;52.182;7.650;2024-01-25T04:30:46;19.63;;;4.97;;
12703;SDS011;6416;52.182;7.650;2024-01-25T04:33:12;21.97;;;4.97;;
12703;SDS011;6416;52.182;7.650;2024-01-25T04:35:37;20.83;;;5.43;;
12703;SDS011;6416;52.182;7.650;2024-01-25T04:38:02;28.33;;;5.17;;
12703;SDS011;6416;52.182;7.650;2024-01-25T04:40:28;23.07;;;5.10;;
12703;SDS011;6416;52.182;7.650;2024-01-25T04:42:53;17.97;;;5.07;;
12703;SDS011;6416;52.182;7.650;2024-01-25T04:45:19;15.67;;;4.37;;
12703;SDS011;6416;52.182;7.650;2024-01-25T04:47:44;22.77;;;5.63;;
12703;SDS011;6416;52.182;7.650;2024-01-25T04:50:10;21.90;;;4.53;;
12703;SDS011;6416;52.182;7.650;2024-01-25T04:52:35;20.50;;;5.13;;
12703;SDS011;6416;52.182;7.650;2024-01-25T04:55:01;29.03;;;4.73;;
12703;SDS011;6416;52.182;7.650;2024-01-25T04:57:26;20.10;;;4.73;;
12703;SDS011;6416;52.182;7.650;2024-01-25T04:59:52;23.20;;;5.23;;
12703;SDS011;6416;52.182;7.650;2024-01-25T05:02:17;20.93;;;5.60;;
12703;SDS011;6416;52.182;7.650;2024-01-25T05:04:43;18.87;;;4.90;;
12703;SDS011;6416;52.182;7.650;2024-01-25T05:07:08;20.10;;;4.53;;
12703;SDS011;6416;52.182;7.650;2024-01-25T05:09:34;23.50;;;5.20;;
12703;SDS011;6416;52.182;7.650;2024-01-25T05:11:59;26.40;;;5.40;;
12703;SDS011;6416;52.182;7.650;2024-01-25T05:14:25;25.13;;;4.43;;
12703;SDS011;6416;52.182;7.650;2024-01-25T05:16:50;19.93;;;4.60;;
12703;SDS011;6416;52.182;7.650;2024-01-25T05:19:16;21.27;;;4.73;;
12703;SDS011;6416;52.182;7.650;2024-01-25T05:21:42;22.63;;;5.37;;
12703;SDS011;6416;52.182;7.650;2024-01-25T05:24:07;19.50;;;4.67;;
12703;SDS011;6416;52.182;7.650;2024-01-25T05:26:32;25.20;;;5.00;;
12703;SDS011;6416;52.182;7.650;2024-01-25T05:28:58;25.97;;;4.43;;
12703;SDS011;6416;52.182;7.650;2024-01-25T05:31:23;23.03;;;5.87;;
12703;SDS011;6416;52.182;7.650;2024-01-25T05:33:49;18.93;;;4.70;;
12703;SDS011;6416;52.182;7.650;2024-01-25T05:36:14;25.70;;;5.37;;
12703;SDS011;6416;52.182;7.650;2024-01-25T05:38:40;28.17;;;7.23;;
12703;SDS011;6416;52.182;7.650;2024-01-25T05:41:05;24.63;;;5.83;;
12703;SDS011;6416;52.182;7.650;2024-01-25T05:43:31;22.63;;;4.80;;
12703;SDS011;6416;52.182;7.650;2024-01-25T05:45:58;23.90;;;6.47;;
12703;SDS011;6416;52.182;7.650;2024-01-25T05:48:23;21.77;;;4.90;;
12703;SDS011;6416;52.182;7.650;2024-01-25T05:50:49;20.23;;;4.70;;
12703;SDS011;6416;52.182;7.650;2024-01-25T05:53:14;22.87;;;5.30;;
12703;SDS011;6416;52.182;7.650;2024-01-25T05:55:40;20.97;;;4.80;;
12703;SDS011;6416;52.182;7.650;2024-01-25T05:58:05;22.10;;;5.23;;
12703;SDS011;6416;52.182;7.650;2024-01-25T06:00:30;21.43;;;5.37;;
12703;SDS011;6416;52.182;7.650;2024-01-25T06:02:56;22.33;;;5.23;;
12703;SDS011;6416;52.182;7.650;2024-01-25T06:05:21;24.37;;;5.20;;
12703;SDS011;6416;52.182;7.650;2024-01-25T06:07:47;21.17;;;5.30;;
12703;SDS011;6416;52.182;7.650;2024-01-25T06:10:12;22.67;;;4.83;;
12703;SDS011;6416;52.182;7.650;2024-01-25T06:12:38;21.07;;;5.33;;
12703;SDS011;6416;52.182;7.650;2024-01-25T06:15:03;17.57;;;4.80;;
12703;SDS011;6416;52.182;7.650;2024-01-25T06:17:30;23.50;;;6.13;;
12703;SDS011;6416;52.182;7.650;2024-01-25T06:19:55;19.07;;;5.53;;
12703;SDS011;6416;52.182;7.650;2024-01-25T06:22:21;25.97;;;6.30;;
12703;SDS011;6416;52.182;7.650;2024-01-25T06:24:47;20.33;;;6.63;;
12703;SDS011;6416;52.182;7.650;2024-01-25T06:27:12;21.13;;;5.70;;
12703;SDS011;6416;52.182;7.650;2024-01-25T06:29:37;27.83;;;6.10;;
12703;SDS011;6416;52.182;7.650;2024-01-25T06:32:03;22.73;;;5.30;;
12703;SDS011;6416;52.182;7.650;2024-01-25T06:34:29;17.97;;;4.87;;
12703;SDS011;6416;52.182;7.650;2024-01-25T06:36:54;20.30;;;5.50;;
12703;SDS011;6416;52.182;7.650;2024-01-25T06:39:20;20.73;;;4.93;;
12703;SDS011;6416;52.182;7.650;2024-01-25T06:41:45;20.27;;;4.97;;
12703;SDS011;6416;52.182;7.650;2024-01-25T06:44:11;27.37;;;5.60;;
12703;SDS011;6416;52.182;7.650;2024-01-25T06:46:36;22.53;;;5.10;;
12703;SDS011;6416;52.182;7.650;2024-01-25T06:49:02;17.77;;;4.87;;
12703;SDS011;6416;52.182;7.650;2024-01-25T06:51:27;30.77;;;5.63;;
12703;SDS011;6416;52.182;7.650;2024-01-25T06:53:52;20.90;;;6.17;;
12703;SDS011;6416;52.182;7.650;2024-01-25T06:56:18;24.83;;;5.30;;
12703;SDS011;6416;52.182;7.650;2024-01-25T06:58:43;22.67;;;5.37;;
12703;SDS011;6416;52.182;7.650;2024-01-25T07:01:09;21.67;;;6.03;;
12703;SDS011;6416;52.182;7.650;2024-01-25T07:03:35;23.17;;;5.97;;
12703;SDS011;6416;52.182;7.650;2024-01-25T07:06:00;21.47;;;5.37;;
12703;SDS011;6416;52.182;7.650;2024-01-25T07:08:25;20.37;;;5.20;;
12703;SDS011;6416;52.182;7.650;2024-01-25T07:10:51;22.03;;;6.10;;
12703;SDS011;6416;52.182;7.650;2024-01-25T07:13:17;22.83;;;5.60;;
12703;SDS011;6416;52.182;7.650;2024-01-25T07:15:42;21.77;;;5.77;;
12703;SDS011;6416;52.182;7.650;2024-01-25T07:18:08;25.00;;;5.40;;
12703;SDS011;6416;52.182;7.650;2024-01-25T07:20:33;24.63;;;6.20;;
12703;SDS011;6416;52.182;7.650;2024-01-25T07:22:59;20.17;;;5.17;;
12703;SDS011;6416;52.182;7.650;2024-01-25T07:25:24;25.57;;;5.00;;
12703;SDS011;6416;52.182;7.650;2024-01-25T07:27:50;22.93;;;5.70;;
12703;SDS011;6416;52.182;7.650;2024-01-25T07:30:15;21.70;;;5.20;;
12703;SDS011;6416;52.182;7.650;2024-01-25T07:32:41;27.97;;;5.10;;
12703;SDS011;6416;52.182;7.650;2024-01-25T07:35:06;26.10;;;5.70;;
12703;SDS011;6416;52.182;7.650;2024-01-25T07:37:32;20.33;;;5.20;;
12703;SDS011;6416;52.182;7.650;2024-01-25T07:39:57;23.00;;;5.30;;
12703;SDS011;6416;52.182;7.650;2024-01-25T07:42:23;21.30;;;5.50;;
12703;SDS011;6416;52.182;7.650;2024-01-25T07:44:48;22.73;;;5.60;;
12703;SDS011;6416;52.182;7.650;2024-01-25T07:47:14;21.90;;;5.37;;
12703;SDS011;6416;52.182;7.650;2024-01-25T07:49:40;26.47;;;6.10;;
12703;SDS011;6416;52.182;7.650;2024-01-25T07:52:06;20.53;;;5.17;;
12703;SDS011;6416;52.182;7.650;2024-01-25T07:54:31;23.40;;;5.97;;
12703;SDS011;6416;52.182;7.650;2024-01-25T07:56:57;24.93;;;6.17;;
12703;SDS011;6416;52.182;7.650;2024-01-25T07:59:22;18.60;;;5.57;;
12703;SDS011;6416;52.182;7.650;2024-01-25T08:01:48;19.70;;;5.70;;
12703;SDS011;6416;52.182;7.650;2024-01-25T08:04:13;18.63;;;5.57;;
12703;SDS011;6416;52.182;7.650;2024-01-25T08:06:39;20.27;;;5.37;;
12703;SDS011;6416;52.182;7.650;2024-01-25T08:09:04;21.93;;;5.83;;
12703;SDS011;6416;52.182;7.650;2024-01-25T08:11:30;18.50;;;6.10;;
12703;SDS011;6416;52.182;7.650;2024-01-25T08:13:55;22.47;;;6.50;;
12703;SDS011;6416;52.182;7.650;2024-01-25T08:16:21;22.57;;;5.70;;
12703;SDS011;6416;52.182;7.650;2024-01-25T08:18:46;24.40;;;5.80;;
12703;SDS011;6416;52.182;7.650;2024-01-25T08:21:12;24.27;;;6.83;;
12703;SDS011;6416;52.182;7.650;2024-01-25T08:23:38;20.40;;;5.83;;
12703;SDS011;6416;52.182;7.650;2024-01-25T08:26:04;23.30;;;6.13;;
12703;SDS011;6416;52.182;7.650;2024-01-25T08:28:30;25.83;;;5.97;;
12703;SDS011;6416;52.182;7.650;2024-01-25T08:30:55;25.00;;;6.10;;
12703;SDS011;6416;52.182;7.650;2024-01-25T08:33:21;24.70;;;6.43;;
12703;SDS011;6416;52.182;7.650;2024-01-25T08:35:46;22.10;;;6.63;;
12703;SDS011;6416;52.182;7.650;2024-01-25T08:38:12;20.40;;;6.03;;
12703;SDS011;6416;52.182;7.650;2024-01-25T08:40:37;25.27;;;5.93;;
12703;SDS011;6416;52.182;7.650;2024-01-25T08:43:03;27.23;;;7.00;;
12703;SDS011;6416;52.182;7.650;2024-01-25T08:45:28;30.43;;;6.80;;
12703;SDS011;6416;52.182;7.650;2024-01-25T08:47:54;21.03;;;6.13;;
12703;SDS011;6416;52.182;7.650;2024-01-25T08:50:19;22.57;;;6.43;;
12703;SDS011;6416;52.182;7.650;2024-01-25T08:52:45;20.70;;;5.90;;
12703;SDS011;6416;52.182;7.650;2024-01-25T08:55:10;26.07;;;7.27;;
12703;SDS011;6416;52.182;7.650;2024-01-25T08:57:35;28.70;;;6.73;;
12703;SDS011;6416;52.182;7.650;2024-01-25T09:00:01;26.50;;;5.80;;
12703;SDS011;6416;52.182;7.650;2024-01-25T09:02:27;27.50;;;6.53;;
12703;SDS011;6416;52.182;7.650;2024-01-25T09:04:53;25.87;;;5.90;;
12703;SDS011;6416;52.182;7.650;2024-01-25T09:07:19;24.30;;;6.53;;
12703;SDS011;6416;52.182;7.650;2024-01-25T09:09:44;26.17;;;6.33;;
12703;SDS011;6416;52.182;7.650;2024-01-25T09:12:10;20.30;;;6.07;;
12703;SDS011;6416;52.182;7.650;2024-01-25T09:14:35;24.27;;;6.03;;
12703;SDS011;6416;52.182;7.650;2024-01-25T09:17:01;27.97;;;6.57;;
12703;SDS011;6416;52.182;7.650;2024-01-25T09:19:26;23.37;;;6.17;;
12703;SDS011;6416;52.182;7.650;2024-01-25T09:21:52;29.83;;;7.40;;
12703;SDS011;6416;52.182;7.650;2024-01-25T09:24:17;27.37;;;6.93;;
12703;SDS011;6416;52.182;7.650;2024-01-25T09:26:43;26.67;;;6.53;;
12703;SDS011;6416;52.182;7.650;2024-01-25T09:29:08;20.43;;;6.10;;
12703;SDS011;6416;52.182;7.650;2024-01-25T09:31:34;24.30;;;6.27;;
12703;SDS011;6416;52.182;7.650;2024-01-25T09:33:59;26.87;;;7.00;;
12703;SDS011;6416;52.182;7.650;2024-01-25T09:36:25;22.27;;;6.00;;
12703;SDS011;6416;52.182;7.650;2024-01-25T09:38:50;22.87;;;7.03;;
12703;SDS011;6416;52.182;7.650;2024-01-25T09:41:16;23.33;;;6.67;;
12703;SDS011;6416;52.182;7.650;2024-01-25T09:43:41;20.43;;;5.83;;
12703;SDS011;6416;52.182;7.650;2024-01-25T09:46:07;30.70;;;6.00;;
12703;SDS011;6416;52.182;7.650;2024-01-25T09:48:33;28.20;;;6.60;;
12703;SDS011;6416;52.182;7.650;2024-01-25T09:50:59;22.07;;;6.63;;
12703;SDS011;6416;52.182;7.650;2024-01-25T09:53:24;30.63;;;6.57;;
12703;SDS011;6416;52.182;7.650;2024-01-25T09:56:09;27.07;;;7.57;;
12703;SDS011;6416;52.182;7.650;2024-01-25T10:01:08;25.33;;;6.33;;
12703;SDS011;6416;52.182;7.650;2024-01-25T10:03:35;29.67;;;7.33;;
12703;SDS011;6416;52.182;7.650;2024-01-25T10:06:00;28.57;;;7.30;;
12703;SDS011;6416;52.182;7.650;2024-01-25T10:08:25;21.30;;;5.90;;
12703;SDS011;6416;52.182;7.650;2024-01-25T10:10:51;20.33;;;6.27;;
12703;SDS011;6416;52.182;7.650;2024-01-25T10:13:16;24.23;;;7.17;;
12703;SDS011;6416;52.182;7.650;2024-01-25T10:15:42;22.07;;;6.47;;
12703;SDS011;6416;52.182;7.650;2024-01-25T10:18:07;25.73;;;6.93;;
12703;SDS011;6416;52.182;7.650;2024-01-25T10:20:33;24.23;;;6.07;;
12703;SDS011;6416;52.182;7.650;2024-01-25T10:22:59;22.03;;;6.07;;
12703;SDS011;6416;52.182;7.650;2024-01-25T10:25:24;25.10;;;7.50;;
12703;SDS011;6416;52.182;7.650;2024-01-25T10:27:50;22.07;;;6.10;;
12703;SDS011;6416;52.182;7.650;2024-01-25T10:30:15;22.87;;;6.97;;
12703;SDS011;6416;52.182;7.650;2024-01-25T10:32:41;21.27;;;6.17;;
12703;SDS011;6416;52.182;7.650;2024-01-25T10:35:06;27.37;;;7.13;;
12703;SDS011;6416;52.182;7.650;2024-01-25T10:37:33;22.77;;;6.87;;
12703;SDS011;6416;52.182;7.650;2024-01-25T10:39:59;26.20;;;6.80;;
12703;SDS011;6416;52.182;7.650;2024-01-25T10:42:25;27.53;;;7.00;;
12703;SDS011;6416;52.182;7.650;2024-01-25T10:44:50;26.43;;;6.43;;
12703;SDS011;6416;52.182;7.650;2024-01-25T10:47:16;23.33;;;6.60;;
12703;SDS011;6416;52.182;7.650;2024-01-25T10:49:42;22.50;;;7.17;;
12703;SDS011;6416;52.182;7.650;2024-01-25T10:52:08;26.10;;;7.07;;
12703;SDS011;6416;52.182;7.650;2024-01-25T10:54:34;27.20;;;7.10;;
12703;SDS011;6416;52.182;7.650;2024-01-25T10:57:00;24.87;;;6.77;;
12703;SDS011;6416;52.182;7.650;2024-01-25T10:59:25;23.37;;;6.53;;
12703;SDS011;6416;52.182;7.650;2024-01-25T11:01:54;29.23;;;7.73;;
12703;SDS011;6416;52.182;7.650;2024-01-25T11:04:19;21.67;;;6.17;;
12703;SDS011;6416;52.182;7.650;2024-01-25T11:06:45;30.73;;;7.33;;
12703;SDS011;6416;52.182;7.650;2024-01-25T11:09:16;22.30;;;7.00;;
12703;SDS011;6416;52.182;7.650;2024-01-25T11:11:49;22.60;;;7.20;;
12703;SDS011;6416;52.182;7.650;2024-01-25T11:14:19;21.97;;;6.50;;
12703;SDS011;6416;52.182;7.650;2024-01-25T11:16:44;28.03;;;7.63;;
12703;SDS011;6416;52.182;7.650;2024-01-25T11:19:20;27.93;;;7.43;;
12703;SDS011;6416;52.182;7.650;2024-01-25T11:21:47;31.17;;;7.37;;
12703;SDS011;6416;52.182;7.650;2024-01-25T11:26:46;20.70;;;6.40;;
12703;SDS011;6416;52.182;7.650;2024-01-25T11:29:15;21.87;;;6.70;;
12703;SDS011;6416;52.182;7.650;2024-01-25T11:31:42;26.03;;;7.63;;
12703;SDS011;6416;52.182;7.650;2024-01-25T11:34:11;21.80;;;6.80;;
12703;SDS011;6416;52.182;7.650;2024-01-25T11:36:37;23.13;;;6.73;;
12703;SDS011;6416;52.182;7.650;2024-01-25T11:39:03;20.60;;;6.68;;
12703;SDS011;6416;52.182;7.650;2024-01-25T11:41:30;23.52;;;6.65;;
12703;SDS011;6416;52.182;7.650;2024-01-25T11:43:56;32.00;;;9.02;;
12703;SDS011;6416;52.182;7.650;2024-01-25T11:46:21;20.70;;;6.38;;
12703;SDS011;6416;52.182;7.650;2024-01-25T11:48:47;20.67;;;6.07;;
12703;SDS011;6416;52.182;7.650;2024-01-25T11:51:13;19.90;;;6.60;;
12703;SDS011;6416;52.182;7.650;2024-01-25T11:53:39;17.98;;;6.10;;
12703;SDS011;6416;52.182;7.650;2024-01-25T11:56:16;23.92;;;6.80;;
12703;SDS011;6416;52.182;7.650;2024-01-25T11:58:45;24.58;;;6.55;;
12703;SDS011;6416;52.182;7.650;2024-01-25T12:01:11;23.65;;;6.95;;
12703;SDS011;6416;52.182;7.650;2024-01-25T12:03:37;18.85;;;5.88;;
12703;SDS011;6416;52.182;7.650;2024-01-25T12:06:03;22.35;;;7.25;;
12703;SDS011;6416;52.182;7.650;2024-01-25T12:08:29;20.77;;;7.05;;
12703;SDS011;6416;52.182;7.650;2024-01-25T12:11:09;22.38;;;6.82;;
12703;SDS011;6416;52.182;7.650;2024-01-25T12:13:35;16.92;;;6.13;;
12703;SDS011;6416;52.182;7.650;2024-01-25T12:16:05;25.83;;;6.35;;
12703;SDS011;6416;52.182;7.650;2024-01-25T12:18:31;23.75;;;6.60;;
12703;SDS011;6416;52.182;7.650;2024-01-25T12:20:57;23.30;;;6.53;;
12703;SDS011;6416;52.182;7.650;2024-01-25T12:23:36;22.42;;;6.95;;
12703;SDS011;6416;52.182;7.650;2024-01-25T12:26:09;22.52;;;5.60;;
12703;SDS011;6416;52.182;7.650;2024-01-25T12:28:36;19.60;;;5.45;;
12703;SDS011;6416;52.182;7.650;2024-01-25T12:31:03;18.35;;;5.60;;
12703;SDS011;6416;52.182;7.650;2024-01-25T12:33:29;20.90;;;7.27;;
12703;SDS011;6416;52.182;7.650;2024-01-25T12:35:56;19.03;;;5.93;;
12703;SDS011;6416;52.182;7.650;2024-01-25T12:38:22;25.33;;;6.60;;
12703;SDS011;6416;52.182;7.650;2024-01-25T12:40:48;20.77;;;6.50;;
12703;SDS011;6416;52.182;7.650;2024-01-25T12:43:14;21.83;;;6.80;;
12703;SDS011;6416;52.182;7.650;2024-01-25T12:45:40;17.57;;;5.87;;
12703;SDS011;6416;52.182;7.650;2024-01-25T12:48:06;23.57;;;7.03;;
12703;SDS011;6416;52.182;7.650;2024-01-25T12:50:32;17.00;;;6.00;;
12703;SDS011;6416;52.182;7.650;2024-01-25T12:52:57;20.07;;;6.33;;
12703;SDS011;6416;52.182;7.650;2024-01-25T12:55:23;22.00;;;5.83;;
12703;SDS011;6416;52.182;7.650;2024-01-25T12:57:48;22.80;;;6.53;;
12703;SDS011;6416;52.182;7.650;2024-01-25T13:00:14;22.20;;;5.70;;
12703;SDS011;6416;52.182;7.650;2024-01-25T13:02:39;22.53;;;6.47;;
12703;SDS011;6416;52.182;7.650;2024-01-25T13:05:05;13.23;;;5.03;;
12703;SDS011;6416;52.182;7.650;2024-01-25T13:07:31;25.27;;;7.03;;
12703;SDS011;6416;52.182;7.650;2024-01-25T13:09:56;19.67;;;5.60;;
12703;SDS011;6416;52.182;7.650;2024-01-25T13:12:21;22.17;;;5.97;;
12703;SDS011;6416;52.182;7.650;2024-01-25T13:14:47;21.40;;;6.27;;
12703;SDS011;6416;52.182;7.650;2024-01-25T13:17:15;16.13;;;6.63;;
12703;SDS011;6416;52.182;7.650;2024-01-25T13:19:41;24.23;;;6.97;;
12703;SDS011;6416;52.182;7.650;2024-01-25T13:22:06;40.03;;;8.17;;
12703;SDS011;6416;52.182;7.650;2024-01-25T13:24:32;22.53;;;6.53;;
12703;SDS011;6416;52.182;7.650;2024-01-25T13:26:57;25.80;;;7.10;;
12703;SDS011;6416;52.182;7.650;2024-01-25T13:29:22;22.83;;;6.73;;
12703;SDS011;6416;52.182;7.650;2024-01-25T13:31:48;19.67;;;6.50;;
12703;SDS011;6416;52.182;7.650;2024-01-25T13:34:13;24.10;;;7.83;;
12703;SDS011;6416;52.182;7.650;2024-01-25T13:36:39;24.97;;;7.07;;
12703;SDS011;6416;52.182;7.650;2024-01-25T13:39:05;24.33;;;6.57;;
12703;SDS011;6416;52.182;7.650;2024-01-25T13:41:30;24.33;;;7.10;;
12703;SDS011;6416;52.182;7.650;2024-01-25T13:43:56;27.43;;;6.30;;
12703;SDS011;6416;52.182;7.650;2024-01-25T13:46:21;21.50;;;5.40;;
12703;SDS011;6416;52.182;7.650;2024-01-25T13:48:47;19.97;;;5.93;;
12703;SDS011;6416;52.182;7.650;2024-01-25T13:51:12;22.93;;;6.50;;
12703;SDS011;6416;52.182;7.650;2024-01-25T13:53:38;23.93;;;6.93;;
12703;SDS011;6416;52.182;7.650;2024-01-25T13:56:03;20.10;;;6.73;;
12703;SDS011;6416;52.182;7.650;2024-01-25T13:58:29;22.53;;;6.17;;
12703;SDS011;6416;52.182;7.650;2024-01-25T14:00:54;20.47;;;5.67;;
12703;SDS011;6416;52.182;7.650;2024-01-25T14:03:39;17.57;;;5.80;;
12703;SDS011;6416;52.182;7.650;2024-01-25T14:06:04;21.50;;;6.47;;
12703;SDS011;6416;52.182;7.650;2024-01-25T14:08:30;22.37;;;6.50;;
12703;SDS011;6416;52.182;7.650;2024-01-25T14:10:56;22.37;;;6.10;;
12703;SDS011;6416;52.182;7.650;2024-01-25T14:13:21;21.03;;;6.33;;
12703;SDS011;6416;52.182;7.650;2024-01-25T14:15:47;18.63;;;5.60;;
12703;SDS011;6416;52.182;7.650;2024-01-25T14:18:12;17.97;;;6.03;;
12703;SDS011;6416;52.182;7.650;2024-01-25T14:20:38;17.33;;;5.30;;
12703;SDS011;6416;52.182;7.650;2024-01-25T14:23:03;25.80;;;6.93;;
12703;SDS011;6416;52.182;7.650;2024-01-25T14:25:29;20.70;;;5.60;;
12703;SDS011;6416;52.182;7.650;2024-01-25T14:27:54;23.10;;;6.47;;
12703;SDS011;6416;52.182;7.650;2024-01-25T14:30:20;29.67;;;6.37;;
12703;SDS011;6416;52.182;7.650;2024-01-25T14:32:45;18.97;;;5.27;;
12703;SDS011;6416;52.182;7.650;2024-01-25T14:35:11;21.97;;;6.57;;
12703;SDS011;6416;52.182;7.650;2024-01-25T14:37:36;21.87;;;5.87;;
12703;SDS011;6416;52.182;7.650;2024-01-25T14:40:02;19.00;;;5.57;;
12703;SDS011;6416;52.182;7.650;2024-01-25T14:42:27;32.70;;;6.70;;
12703;SDS011;6416;52.182;7.650;2024-01-25T14:44:53;19.67;;;6.10;;